This is the latest recevied weather packets stored in our database for station/object WC4PEM-10. If no packets are shown the sender has not sent any weather packets the latest 10 day(s).
| Time | Temp. | Humidity | Pressure | Rain* | Wind** | Luminosity | Snow |
|---|---|---|---|---|---|---|---|
| 1777691571 | 23.89° C | 84% | 1011.1 hPa | 0 mm | - | - | - |
| 1777691499 | 23.33° C | 86% | 1011 hPa | 0 mm | - | - | - |
| 1777691199 | 23.33° C | 85% | 1011.1 hPa | 0 mm | - | - | - |
| 1777690899 | 23.89° C | 85% | 1011.2 hPa | 0 mm | - | - | - |
| 1777690793 | 23.89° C | 83% | 1011.4 hPa | 0 mm | - | - | - |
| 1777690607 | 23.89° C | 84% | 1011.1 hPa | 0 mm | - | - | - |
| 1777690550 | 23.89° C | 82% | 1011.3 hPa | 0 mm | - | - | - |
| 1777690299 | 23.89° C | 84% | 1011.2 hPa | 0 mm | - | - | - |
| 1777689999 | 23.89° C | 83% | 1011.4 hPa | 0 mm | - | - | - |
| 1777689699 | 23.89° C | 82% | 1011.3 hPa | 0 mm | - | - | - |
| 1777689550 | 24.44° C | 80% | 1011.2 hPa | 0 mm | - | - | - |
| 1777689399 | 23.89° C | 82% | 1011.4 hPa | 0 mm | - | - | - |
| 1777689099 | 24.44° C | 81% | 1011.3 hPa | 0 mm | - | - | - |
| 1777688910 | 24.44° C | 80% | 1011.2 hPa | 0 mm | - | - | - |
| 1777688799 | 24.44° C | 81% | 1011.2 hPa | 0 mm | - | - | - |
| 1777688507 | 25° C | 76% | 1011.1 hPa | 0 mm | - | - | - |
| 1777688499 | 24.44° C | 80% | 1011.2 hPa | 0 mm | - | - | - |
| 1777688347 | 24.44° C | 79% | 1011.1 hPa | 0 mm | - | - | - |
| 1777688199 | 24.44° C | 80% | 1011 hPa | 0 mm | - | - | - |
| 1777687899 | 24.44° C | 79% | 1011.1 hPa | 0 mm | - | - | - |
| 1777687599 | 24.44° C | 78% | 1011.1 hPa | 0 mm | - | - | - |
| 1777687299 | 24.44° C | 77% | 1011.2 hPa | 0 mm | - | - | - |
| 1777687141 | 25° C | 76% | 1011 hPa | 0 mm | - | - | - |
| 1777686999 | 25° C | 76% | 1011.1 hPa | 0 mm | - | - | - |
| 1777686801 | 25° C | 75% | 1011 hPa | 0 mm | - | - | - |
* Rain latest hour (hover to see other rain measurements)
** Current wind speed in m/s (hover to see current wind gust speed)